Time,TemperatureF,DewpointF,PressureIn,WindDirection,WindDirectionDegrees,WindSpeedMPH,WindSpeedGustMPH,Humidity,HourlyPrecipIn,Conditions,Clouds,dailyrainin,SoftwareType,DateUTC
2013-02-19 00:00:00,45.1,38.3,30.03,NE,45,0.0,2.9,77,0.00,,---,0.00,VWS V13.01,2013-02-18 22:00:00,
2013-02-19 00:05:00,45.3,38.5,30.03,NW,315,0.0,1.6,77,0.00,,---,0.00,VWS V13.01,2013-02-18 22:05:00,
2013-02-19 00:10:00,45.1,38.3,30.02,NNE,22,0.0,3.4,77,0.00,,---,0.00,VWS V13.01,2013-02-18 22:10:00,
2013-02-19 00:15:00,45.3,38.5,30.02,ENE,67,0.0,1.3,77,0.00,,---,0.00,VWS V13.01,2013-02-18 22:15:00,
2013-02-19 00:20:00,45.3,38.9,30.02,NNW,337,0.0,1.8,78,0.00,,---,0.00,VWS V13.01,2013-02-18 22:20:00,
2013-02-19 00:25:00,45.1,38.7,30.02,North,0,0.0,2.0,78,0.00,,---,0.00,VWS V13.01,2013-02-18 22:25:00,
2013-02-19 00:30:00,45.1,38.7,30.02,NNE,22,0.0,1.8,78,0.00,,---,0.00,VWS V13.01,2013-02-18 22:30:00,
2013-02-19 00:35:00,45.1,38.7,30.02,North,0,0.0,1.3,78,0.00,,---,0.00,VWS V13.01,2013-02-18 22:35:00,
2013-02-19 00:40:00,45.1,38.7,30.02,NNW,337,1.6,1.8,78,0.00,,---,0.00,VWS V13.01,2013-02-18 22:40:00,
2013-02-19 00:45:00,45.1,38.7,30.02,NNW,337,2.2,2.2,78,0.00,,---,0.00,VWS V13.01,2013-02-18 22:45:00,
2013-02-19 00:50:00,45.1,38.7,30.02,NNE,22,0.0,2.5,78,0.00,,---,0.00,VWS V13.01,2013-02-18 22:50:00,
2013-02-19 00:55:00,45.1,38.7,30.02,NW,315,0.0,2.2,78,0.00,,---,0.00,VWS V13.01,2013-02-18 22:55:00,
2013-02-19 01:00:00,45.0,38.6,30.02,NE,45,0.0,2.2,78,0.00,,---,0.00,VWS V13.01,2013-02-18 23:00:00,
2013-02-19 01:06:00,45.0,38.6,30.02,NNE,22,0.0,1.1,78,0.00,,---,0.00,VWS V13.01,2013-02-18 23:06:00,
2013-02-19 01:11:00,44.8,38.4,30.01,NNW,337,0.0,2.2,78,0.00,,---,0.00,VWS V13.01,2013-02-18 23:11:00,
2013-02-19 01:15:00,44.8,38.7,30.01,North,0,1.3,3.6,79,0.00,,---,0.00,VWS V13.01,2013-02-18 23:15:00,
2013-02-19 01:21:00,44.8,38.7,30.01,ENE,67,0.0,2.2,79,0.00,,---,0.00,VWS V13.01,2013-02-18 23:21:00,
2013-02-19 01:26:00,44.8,38.7,30.01,NNE,22,0.0,2.5,79,0.00,,---,0.00,VWS V13.01,2013-02-18 23:26:00,
2013-02-19 01:31:00,44.6,38.5,30.01,NNW,337,0.0,2.0,79,0.00,,---,0.00,VWS V13.01,2013-02-18 23:31:00,
2013-02-19 01:36:00,44.6,38.5,30.01,NNW,337,0.0,2.5,79,0.00,,---,0.00,VWS V13.01,2013-02-18 23:36:00,
2013-02-19 01:41:00,44.6,38.5,30.01,NNW,337,0.9,2.2,79,0.00,,---,0.00,VWS V13.01,2013-02-18 23:41:00,
2013-02-19 01:46:00,44.6,38.5,30.01,North,0,2.2,2.2,79,0.00,,---,0.00,VWS V13.01,2013-02-18 23:46:00,
2013-02-19 01:51:00,44.4,38.3,30.01,North,0,1.6,2.2,79,0.00,,---,0.00,VWS V13.01,2013-02-18 23:51:00,
2013-02-19 01:56:00,44.4,38.3,30.01,North,0,2.7,2.7,79,0.00,,---,0.00,VWS V13.01,2013-02-18 23:56:00,
2013-02-19 02:01:00,44.4,38.3,30.01,NNE,22,3.6,3.6,79,0.00,,---,0.00,VWS V13.01,2013-02-19 00:01:00,
2013-02-19 02:06:00,44.4,38.3,30.01,North,0,2.2,4.0,79,0.00,,---,0.00,VWS V13.01,2013-02-19 00:06:00,
2013-02-19 02:11:00,44.4,38.3,30.00,North,0,2.2,3.6,79,0.00,,---,0.00,VWS V13.01,2013-02-19 00:11:00,
2013-02-19 02:16:00,44.4,38.3,30.00,North,0,3.1,3.1,79,0.00,,---,0.00,VWS V13.01,2013-02-19 00:16:00,
2013-02-19 02:21:00,44.4,38.3,30.00,NW,315,0.0,3.1,79,0.00,,---,0.00,VWS V13.01,2013-02-19 00:21:00,
2013-02-19 02:26:00,44.4,38.6,30.00,NE,45,0.0,2.0,80,0.00,,---,0.00,VWS V13.01,2013-02-19 00:26:00,
2013-02-19 02:31:00,44.4,38.6,30.00,ESE,112,0.0,2.2,80,0.00,,---,0.00,VWS V13.01,2013-02-19 00:31:00,
2013-02-19 02:36:00,44.4,38.6,29.99,North,0,0.0,2.2,80,0.00,,---,0.00,VWS V13.01,2013-02-19 00:36:00,
2013-02-19 02:41:00,44.4,38.6,29.99,NNW,337,0.0,2.2,80,0.00,,---,0.00,VWS V13.01,2013-02-19 00:41:00,
2013-02-19 02:46:00,44.6,38.8,29.99,North,0,0.0,2.2,80,0.00,,---,0.00,VWS V13.01,2013-02-19 00:46:00,
2013-02-19 02:52:00,44.6,38.8,29.99,North,0,0.0,2.2,80,0.00,,---,0.00,VWS V13.01,2013-02-19 00:52:00,
2013-02-19 02:57:00,44.6,38.8,29.99,NE,45,0.0,1.1,80,0.00,,---,0.00,VWS V13.01,2013-02-19 00:57:00,
2013-02-19 03:02:00,44.6,38.8,29.99,ENE,67,0.0,1.1,80,0.00,,---,0.00,VWS V13.01,2013-02-19 01:02:00,
2013-02-19 03:07:00,44.8,39.0,29.98,North,0,0.0,1.1,80,0.00,,---,0.00,VWS V13.01,2013-02-19 01:07:00,
2013-02-19 03:12:00,44.8,39.0,29.98,East,90,1.1,1.1,80,0.00,,---,0.00,VWS V13.01,2013-02-19 01:12:00,
2013-02-19 03:17:00,44.8,39.0,29.98,North,0,0.0,1.1,80,0.00,,---,0.00,VWS V13.01,2013-02-19 01:17:00,
2013-02-19 03:22:00,44.8,39.3,29.97,ENE,67,0.0,1.1,81,0.00,,---,0.00,VWS V13.01,2013-02-19 01:22:00,
2013-02-19 03:27:00,45.0,39.5,29.97,NNW,337,0.0,1.6,81,0.00,,---,0.00,VWS V13.01,2013-02-19 01:27:00,
2013-02-19 03:32:00,45.1,39.6,29.97,North,0,0.0,1.3,81,0.00,,---,0.00,VWS V13.01,2013-02-19 01:32:00,
2013-02-19 03:37:00,45.1,39.6,29.97,North,0,0.0,1.3,81,0.00,,---,0.00,VWS V13.01,2013-02-19 01:37:00,
2013-02-19 03:42:00,45.1,39.6,29.97,North,0,0.0,1.3,81,0.00,,---,0.00,VWS V13.01,2013-02-19 01:42:00,
2013-02-19 03:47:00,45.1,39.6,29.97,NNE,22,0.0,1.3,81,0.00,,---,0.00,VWS V13.01,2013-02-19 01:47:00,
2013-02-19 03:52:00,45.1,39.6,29.97,NNW,337,0.0,1.3,81,0.00,,---,0.00,VWS V13.01,2013-02-19 01:52:00,
2013-02-19 03:57:00,45.3,39.8,29.97,NNW,337,0.0,1.3,81,0.00,,---,0.00,VWS V13.01,2013-02-19 01:57:00,
2013-02-19 04:02:00,45.3,39.8,29.96,North,0,0.0,1.3,81,0.00,,---,0.00,VWS V13.01,2013-02-19 02:02:00,
2013-02-19 04:07:00,45.3,39.8,29.97,NNE,22,0.0,1.3,81,0.00,,---,0.00,VWS V13.01,2013-02-19 02:07:00,
2013-02-19 04:12:00,45.3,39.8,29.96,North,0,0.0,2.5,81,0.00,,---,0.00,VWS V13.01,2013-02-19 02:12:00,
2013-02-19 04:17:00,45.3,39.8,29.96,North,0,0.0,2.5,81,0.00,,---,0.00,VWS V13.01,2013-02-19 02:17:00,
2013-02-19 04:22:00,45.5,40.0,29.97,North,0,0.0,1.1,81,0.00,,---,0.00,VWS V13.01,2013-02-19 02:22:00,
2013-02-19 04:27:00,45.5,40.0,29.96,North,0,0.0,2.0,81,0.00,,---,0.00,VWS V13.01,2013-02-19 02:27:00,
2013-02-19 04:32:00,45.5,40.0,29.96,NNE,22,0.0,1.1,81,0.00,,---,0.00,VWS V13.01,2013-02-19 02:32:00,
2013-02-19 04:37:00,45.7,40.2,29.96,NNE,22,0.0,1.1,81,0.00,,---,0.00,VWS V13.01,2013-02-19 02:37:00,
2013-02-19 04:42:00,45.7,40.2,29.96,NNE,22,0.0,1.1,81,0.00,,---,0.00,VWS V13.01,2013-02-19 02:42:00,
2013-02-19 04:48:00,45.7,40.2,29.96,NE,45,0.0,1.1,81,0.00,,---,0.00,VWS V13.01,2013-02-19 02:48:00,
2013-02-19 04:53:00,45.9,40.4,29.96,ESE,112,0.0,2.2,81,0.00,,---,0.00,VWS V13.01,2013-02-19 02:53:00,
2013-02-19 04:58:00,46.0,40.5,29.96,East,90,0.0,1.6,81,0.00,,---,0.00,VWS V13.01,2013-02-19 02:58:00,
2013-02-19 05:03:00,46.0,40.5,29.96,East,90,0.0,2.0,81,0.00,,---,0.00,VWS V13.01,2013-02-19 03:03:00,
2013-02-19 05:08:00,46.0,40.5,29.96,ENE,67,0.0,2.9,81,0.00,,---,0.00,VWS V13.01,2013-02-19 03:08:00,
2013-02-19 05:14:00,46.2,40.7,29.96,ENE,67,0.0,1.6,81,0.00,,---,0.00,VWS V13.01,2013-02-19 03:14:00,
2013-02-19 05:19:00,46.2,40.7,29.96,NE,45,0.0,1.6,81,0.00,,---,0.00,VWS V13.01,2013-02-19 03:19:00,
2013-02-19 05:24:00,46.2,40.7,29.95,NNE,22,0.0,1.6,81,0.00,,---,0.00,VWS V13.01,2013-02-19 03:24:00,
2013-02-19 05:29:00,46.2,40.7,29.95,NE,45,0.0,1.6,81,0.00,,---,0.00,VWS V13.01,2013-02-19 03:29:00,
2013-02-19 05:34:00,46.2,40.7,29.95,NNW,337,0.0,1.6,81,0.00,,---,0.00,VWS V13.01,2013-02-19 03:34:00,
2013-02-19 05:39:00,46.2,40.7,29.94,NE,45,0.0,1.6,81,0.00,,---,0.00,VWS V13.01,2013-02-19 03:39:00,
2013-02-19 05:44:00,46.4,40.9,29.94,ENE,67,0.0,1.6,81,0.00,,---,0.00,VWS V13.01,2013-02-19 03:44:00,
2013-02-19 05:49:00,46.6,41.1,29.94,NE,45,0.0,2.5,81,0.00,,---,0.00,VWS V13.01,2013-02-19 03:49:00,
2013-02-19 05:54:00,46.6,41.1,29.94,NE,45,0.0,0.9,81,0.00,,---,0.00,VWS V13.01,2013-02-19 03:54:00,
2013-02-19 05:59:00,46.6,41.1,29.94,NE,45,0.0,0.9,81,0.00,,---,0.00,VWS V13.01,2013-02-19 03:59:00,
2013-02-19 06:04:00,46.6,41.1,29.94,NNE,22,0.0,0.9,81,0.00,,---,0.00,VWS V13.01,2013-02-19 04:04:00,
2013-02-19 06:09:00,46.6,41.1,29.94,NNW,337,0.0,0.9,81,0.00,,---,0.00,VWS V13.01,2013-02-19 04:09:00,
2013-02-19 06:14:00,46.6,41.1,29.94,NNW,337,0.0,0.9,81,0.00,,---,0.00,VWS V13.01,2013-02-19 04:14:00,
2013-02-19 06:19:00,46.6,41.1,29.94,NNW,337,0.0,1.3,81,0.00,,---,0.00,VWS V13.01,2013-02-19 04:19:00,
2013-02-19 06:24:00,46.8,41.3,29.94,NNE,22,0.0,1.6,81,0.00,,---,0.00,VWS V13.01,2013-02-19 04:24:00,
2013-02-19 06:29:00,46.8,41.3,29.94,North,0,0.0,2.2,81,0.00,,---,0.00,VWS V13.01,2013-02-19 04:29:00,
2013-02-19 06:35:00,46.8,41.3,29.94,NNE,22,2.0,2.0,81,0.00,,---,0.00,VWS V13.01,2013-02-19 04:35:00,
2013-02-19 06:40:00,46.9,41.4,29.93,NNE,22,0.0,1.6,81,0.00,,---,0.00,VWS V13.01,2013-02-19 04:40:00,
2013-02-19 06:45:00,46.9,41.4,29.93,NNE,22,0.7,0.7,81,0.00,,---,0.00,VWS V13.01,2013-02-19 04:45:00,
2013-02-19 06:50:00,46.9,41.4,29.93,NNW,337,0.0,2.0,81,0.00,,---,0.00,VWS V13.01,2013-02-19 04:50:00,
2013-02-19 06:55:00,46.9,41.4,29.93,North,0,0.0,2.0,81,0.00,,---,0.00,VWS V13.01,2013-02-19 04:55:00,
2013-02-19 07:00:00,46.9,41.4,29.93,NNW,337,0.0,2.0,81,0.00,,---,0.02,VWS V13.01,2013-02-19 05:00:00,
2013-02-19 07:05:00,46.9,41.7,29.93,NNW,337,0.0,1.8,82,0.00,,---,0.02,VWS V13.01,2013-02-19 05:05:00,
2013-02-19 07:10:00,46.9,41.7,29.93,North,0,0.0,1.1,82,0.00,,---,0.02,VWS V13.01,2013-02-19 05:10:00,
2013-02-19 07:15:00,46.9,41.7,29.93,North,0,0.0,0.7,82,0.00,,---,0.04,VWS V13.01,2013-02-19 05:15:00,
2013-02-19 07:20:00,46.9,41.7,29.93,North,0,0.0,1.3,82,0.00,,---,0.04,VWS V13.01,2013-02-19 05:20:00,
2013-02-19 07:25:00,46.9,41.7,29.92,NNE,22,0.0,2.5,82,0.00,,---,0.04,VWS V13.01,2013-02-19 05:25:00,
2013-02-19 07:30:00,46.9,41.7,29.92,SW,225,0.0,2.5,82,0.00,,---,0.04,VWS V13.01,2013-02-19 05:30:00,
2013-02-19 07:35:00,46.9,41.7,29.92,NE,45,0.0,2.5,82,0.00,,---,0.04,VWS V13.01,2013-02-19 05:35:00,
2013-02-19 07:40:00,46.9,41.7,29.92,NNE,22,0.0,2.5,82,0.00,,---,0.04,VWS V13.01,2013-02-19 05:40:00,
2013-02-19 07:45:00,46.9,41.7,29.92,ENE,67,0.0,2.5,82,0.00,,---,0.06,VWS V13.01,2013-02-19 05:45:00,
2013-02-19 07:50:00,46.9,41.7,29.92,ESE,112,0.0,1.3,82,0.00,,---,0.06,VWS V13.01,2013-02-19 05:50:00,
2013-02-19 07:55:00,47.1,41.9,29.91,ESE,112,0.0,2.5,82,0.00,,---,0.08,VWS V13.01,2013-02-19 05:55:00,
2013-02-19 08:00:00,47.1,42.2,29.92,ENE,67,0.0,1.3,83,0.00,,---,0.08,VWS V13.01,2013-02-19 06:00:00,
2013-02-19 08:05:00,47.1,42.2,29.92,NNW,337,1.6,1.6,83,0.00,,---,0.08,VWS V13.01,2013-02-19 06:05:00,
2013-02-19 08:11:00,47.1,42.2,29.91,WNW,292,0.0,2.2,83,0.00,,---,0.10,VWS V13.01,2013-02-19 06:11:00,
2013-02-19 08:16:00,47.1,42.2,29.91,NNW,337,1.6,2.2,83,0.00,,---,0.10,VWS V13.01,2013-02-19 06:16:00,
2013-02-19 08:21:00,47.1,42.2,29.91,North,0,2.0,4.3,83,0.00,,---,0.12,VWS V13.01,2013-02-19 06:21:00,
2013-02-19 08:26:00,47.1,42.2,29.91,NNE,22,2.7,2.7,83,0.00,,---,0.12,VWS V13.01,2013-02-19 06:26:00,
2013-02-19 08:31:00,47.1,42.2,29.91,NNW,337,4.7,4.7,83,0.00,,---,0.12,VWS V13.01,2013-02-19 06:31:00,
2013-02-19 08:36:00,47.1,42.5,29.91,North,0,2.2,2.2,84,0.00,,---,0.12,VWS V13.01,2013-02-19 06:36:00,
2013-02-19 08:41:00,47.1,42.5,29.90,NNW,337,0.0,3.8,84,0.00,,---,0.12,VWS V13.01,2013-02-19 06:41:00,
2013-02-19 08:46:00,47.1,42.5,29.91,NNW,337,0.0,3.1,84,0.00,,---,0.12,VWS V13.01,2013-02-19 06:46:00,
2013-02-19 08:51:00,47.1,42.5,29.91,NW,315,0.7,2.0,84,0.00,,---,0.12,VWS V13.01,2013-02-19 06:51:00,
2013-02-19 08:56:00,47.1,42.5,29.90,North,0,1.1,1.3,84,0.00,,---,0.12,VWS V13.01,2013-02-19 06:56:00,
2013-02-19 09:01:00,47.1,42.8,29.90,North,0,0.0,1.6,85,0.00,,---,0.12,VWS V13.01,2013-02-19 07:01:00,
2013-02-19 09:06:00,47.1,42.8,29.90,NNW,337,0.0,1.1,85,0.00,,---,0.12,VWS V13.01,2013-02-19 07:06:00,
2013-02-19 09:11:00,47.1,42.8,29.90,NW,315,0.9,0.9,85,0.00,,---,0.12,VWS V13.01,2013-02-19 07:11:00,
2013-02-19 09:16:00,47.1,42.8,29.90,NW,315,0.0,1.1,85,0.00,,---,0.12,VWS V13.01,2013-02-19 07:16:00,
2013-02-19 09:21:00,47.3,43.0,29.90,North,0,2.2,2.2,85,0.00,,---,0.12,VWS V13.01,2013-02-19 07:21:00,
2013-02-19 09:26:00,47.3,43.0,29.89,SE,135,0.0,2.7,85,0.00,,---,0.12,VWS V13.01,2013-02-19 07:26:00,
2013-02-19 09:31:00,47.5,43.2,29.89,ENE,67,1.6,1.6,85,0.00,,---,0.12,VWS V13.01,2013-02-19 07:31:00,
2013-02-19 09:36:00,47.7,43.7,29.89,WNW,292,0.0,0.7,86,0.00,,---,0.12,VWS V13.01,2013-02-19 07:36:00,
2013-02-19 09:41:00,47.8,43.8,29.90,WNW,292,0.0,2.9,86,0.00,,---,0.12,VWS V13.01,2013-02-19 07:41:00,
2013-02-19 09:46:00,48.0,44.0,29.89,NW,315,0.0,1.1,86,0.00,,---,0.15,VWS V13.01,2013-02-19 07:46:00,
2013-02-19 09:51:00,48.0,44.0,29.89,North,0,1.6,1.8,86,0.00,,---,0.15,VWS V13.01,2013-02-19 07:51:00,
2013-02-19 09:56:00,48.0,44.0,29.88,ENE,67,0.7,4.0,86,0.00,,---,0.15,VWS V13.01,2013-02-19 07:56:00,
2013-02-19 10:01:00,48.2,44.2,29.89,ESE,112,0.7,7.8,86,0.00,,---,0.15,VWS V13.01,2013-02-19 08:01:00,
2013-02-19 10:06:00,48.6,44.9,29.88,South,180,8.1,8.3,87,0.00,,---,0.15,VWS V13.01,2013-02-19 08:06:00,
2013-02-19 10:11:00,48.9,45.2,29.88,South,180,5.4,9.2,87,0.00,,---,0.15,VWS V13.01,2013-02-19 08:11:00,
2013-02-19 10:16:00,49.6,45.9,29.88,South,180,5.8,6.3,87,0.00,,---,0.15,VWS V13.01,2013-02-19 08:16:00,
2013-02-19 10:21:00,49.8,46.1,29.88,SSE,157,4.5,6.5,87,0.00,,---,0.15,VWS V13.01,2013-02-19 08:21:00,
2013-02-19 10:26:00,50.2,46.5,29.87,SE,135,1.3,5.8,87,0.00,,---,0.17,VWS V13.01,2013-02-19 08:26:00,
2013-02-19 10:31:00,50.2,46.5,29.87,South,180,0.0,3.6,87,0.00,,---,0.17,VWS V13.01,2013-02-19 08:31:00,
2013-02-19 10:36:00,50.4,46.7,29.87,SSW,202,3.1,8.9,87,0.00,,---,0.17,VWS V13.01,2013-02-19 08:36:00,
2013-02-19 10:41:00,50.5,46.8,29.87,SSW,202,2.7,3.8,87,0.00,,---,0.17,VWS V13.01,2013-02-19 08:41:00,
2013-02-19 10:46:00,50.7,47.0,29.86,SSE,157,5.8,9.8,87,0.00,,---,0.17,VWS V13.01,2013-02-19 08:46:00,
2013-02-19 10:51:00,50.7,47.0,29.87,South,180,3.6,5.6,87,0.00,,---,0.17,VWS V13.01,2013-02-19 08:51:00,
2013-02-19 10:57:00,50.9,47.2,29.86,SSE,157,0.0,3.1,87,0.00,,---,0.17,VWS V13.01,2013-02-19 08:57:00,
2013-02-19 11:02:00,51.1,47.7,29.86,WSW,247,3.4,8.3,88,0.00,,---,0.17,VWS V13.01,2013-02-19 09:02:00,
2013-02-19 11:07:00,51.1,47.7,29.86,SW,225,3.1,4.5,88,0.00,,---,0.17,VWS V13.01,2013-02-19 09:07:00,
2013-02-19 11:12:00,51.1,47.7,29.87,SE,135,0.0,4.5,88,0.00,,---,0.17,VWS V13.01,2013-02-19 09:12:00,
2013-02-19 11:17:00,51.3,47.9,29.86,West,270,0.0,2.7,88,0.00,,---,0.17,VWS V13.01,2013-02-19 09:17:00,
2013-02-19 11:22:00,51.4,48.0,29.86,SSE,157,0.0,1.6,88,0.00,,---,0.17,VWS V13.01,2013-02-19 09:22:00,
2013-02-19 11:27:00,51.4,48.0,29.86,South,180,6.0,6.0,88,0.00,,---,0.17,VWS V13.01,2013-02-19 09:27:00,
2013-02-19 11:32:00,51.4,48.0,29.86,SSE,157,2.7,8.5,88,0.00,,---,0.17,VWS V13.01,2013-02-19 09:32:00,
2013-02-19 11:37:00,51.6,48.2,29.86,SE,135,0.0,3.6,88,0.00,,---,0.19,VWS V13.01,2013-02-19 09:37:00,
2013-02-19 11:42:00,51.6,48.2,29.86,SSE,157,0.0,7.6,88,0.00,,---,0.19,VWS V13.01,2013-02-19 09:42:00,
2013-02-19 11:47:00,51.6,48.2,29.85,SSE,157,6.0,6.9,88,0.00,,---,0.19,VWS V13.01,2013-02-19 09:47:00,
2013-02-19 11:52:00,51.8,48.4,29.85,SSW,202,0.0,4.7,88,0.00,,---,0.21,VWS V13.01,2013-02-19 09:52:00,
2013-02-19 11:57:00,51.8,48.4,29.85,WNW,292,1.3,4.7,88,0.00,,---,0.21,VWS V13.01,2013-02-19 09:57:00,
2013-02-19 12:02:00,52.0,48.6,29.85,SE,135,0.0,2.5,88,0.00,,---,0.21,VWS V13.01,2013-02-19 10:02:00,
2013-02-19 12:07:00,52.0,48.6,29.85,SW,225,3.4,8.9,88,0.00,,---,0.21,VWS V13.01,2013-02-19 10:07:00,
2013-02-19 12:12:00,52.2,48.8,29.84,South,180,0.0,7.4,88,0.00,,---,0.21,VWS V13.01,2013-02-19 10:12:00,
2013-02-19 12:17:00,52.3,48.9,29.84,SSW,202,4.0,6.5,88,0.00,,---,0.21,VWS V13.01,2013-02-19 10:17:00,
2013-02-19 12:22:00,52.3,48.9,29.83,SSW,202,0.7,0.7,88,0.00,,---,0.21,VWS V13.01,2013-02-19 10:22:00,
2013-02-19 12:27:00,52.5,49.0,29.83,SSW,202,0.0,4.9,88,0.00,,---,0.21,VWS V13.01,2013-02-19 10:27:00,
2013-02-19 12:32:00,52.7,49.2,29.82,SSE,157,0.0,1.1,88,0.00,,---,0.21,VWS V13.01,2013-02-19 10:32:00,
2013-02-19 12:37:00,52.9,49.5,29.81,SSE,157,3.8,3.8,88,0.00,,---,0.21,VWS V13.01,2013-02-19 10:37:00,
2013-02-19 12:42:00,53.1,49.7,29.81,SW,225,0.0,0.9,88,0.00,,---,0.21,VWS V13.01,2013-02-19 10:42:00,
2013-02-19 12:47:00,53.2,49.7,29.81,South,180,3.1,3.8,88,0.00,,---,0.21,VWS V13.01,2013-02-19 10:47:00,
2013-02-19 12:52:00,53.2,49.7,29.80,SSW,202,0.0,10.3,88,0.00,,---,0.21,VWS V13.01,2013-02-19 10:52:00,
2013-02-19 12:57:00,53.2,49.7,29.80,South,180,0.9,13.4,88,0.00,,---,0.21,VWS V13.01,2013-02-19 10:57:00,
2013-02-19 13:02:00,53.4,49.9,29.80,SW,225,2.2,8.1,88,0.00,,---,0.21,VWS V13.01,2013-02-19 11:02:00,
2013-02-19 13:07:00,53.4,49.9,29.80,WSW,247,7.4,7.4,88,0.00,,---,0.21,VWS V13.01,2013-02-19 11:07:00,
2013-02-19 13:12:00,53.6,50.1,29.80,SSE,157,2.2,2.2,88,0.00,,---,0.21,VWS V13.01,2013-02-19 11:12:00,
2013-02-19 13:17:00,53.8,50.3,29.80,SSW,202,3.6,5.6,88,0.00,,---,0.21,VWS V13.01,2013-02-19 11:17:00,
2013-02-19 13:22:00,53.8,50.3,29.80,SSW,202,1.6,2.9,88,0.00,,---,0.21,VWS V13.01,2013-02-19 11:22:00,
2013-02-19 13:27:00,53.8,50.3,29.79,South,180,2.0,6.7,88,0.00,,---,0.21,VWS V13.01,2013-02-19 11:27:00,
2013-02-19 13:32:00,53.8,50.3,29.80,SSW,202,0.0,4.7,88,0.00,,---,0.21,VWS V13.01,2013-02-19 11:32:00,
2013-02-19 13:37:00,53.8,50.3,29.80,SSW,202,1.1,4.3,88,0.00,,---,0.21,VWS V13.01,2013-02-19 11:37:00,
2013-02-19 13:42:00,53.4,49.9,29.79,West,270,4.0,4.0,88,0.00,,---,0.21,VWS V13.01,2013-02-19 11:42:00,
2013-02-19 13:47:00,53.6,49.8,29.79,WSW,247,5.4,5.4,87,0.00,,---,0.21,VWS V13.01,2013-02-19 11:47:00,
2013-02-19 13:52:00,53.8,50.0,29.78,WSW,247,0.9,3.1,87,0.00,,---,0.21,VWS V13.01,2013-02-19 11:52:00,
2013-02-19 13:57:00,53.6,49.8,29.78,SSW,202,8.1,12.8,87,0.00,,---,0.21,VWS V13.01,2013-02-19 11:57:00,
2013-02-19 14:02:00,53.6,49.8,29.77,SW,225,0.7,8.9,87,0.00,,---,0.21,VWS V13.01,2013-02-19 12:02:00,
2013-02-19 14:07:00,53.4,49.6,29.78,West,270,1.1,7.6,87,0.00,,---,0.21,VWS V13.01,2013-02-19 12:07:00,
2013-02-19 14:12:00,53.4,49.3,29.77,WNW,292,1.3,2.2,86,0.00,,---,0.21,VWS V13.01,2013-02-19 12:12:00,
2013-02-19 14:17:00,53.4,49.3,29.77,NW,315,1.6,3.8,86,0.00,,---,0.21,VWS V13.01,2013-02-19 12:17:00,
2013-02-19 14:22:00,53.4,49.3,29.78,NNW,337,3.6,4.5,86,0.00,,---,0.21,VWS V13.01,2013-02-19 12:22:00,
2013-02-19 14:27:00,53.4,49.0,29.78,West,270,0.0,3.4,85,0.00,,---,0.21,VWS V13.01,2013-02-19 12:27:00,
2013-02-19 14:32:00,53.4,49.0,29.77,SSW,202,0.0,1.3,85,0.00,,---,0.21,VWS V13.01,2013-02-19 12:32:00,
2013-02-19 14:37:00,53.4,49.0,29.77,WSW,247,0.0,4.9,85,0.00,,---,0.21,VWS V13.01,2013-02-19 12:37:00,
2013-02-19 14:42:00,53.4,48.7,29.77,WNW,292,0.0,1.6,84,0.00,,---,0.21,VWS V13.01,2013-02-19 12:42:00,
2013-02-19 14:48:00,53.4,48.7,29.78,WNW,292,0.0,2.5,84,0.00,,---,0.21,VWS V13.01,2013-02-19 12:48:00,
2013-02-19 14:53:00,53.4,48.7,29.78,West,270,0.7,0.7,84,0.00,,---,0.21,VWS V13.01,2013-02-19 12:53:00,
2013-02-19 14:58:00,53.4,48.7,29.78,SSW,202,0.7,2.0,84,0.00,,---,0.21,VWS V13.01,2013-02-19 12:58:00,
2013-02-19 15:03:00,53.4,48.4,29.78,South,180,0.0,4.7,83,0.00,,---,0.21,VWS V13.01,2013-02-19 13:03:00,
2013-02-19 15:08:00,53.4,48.4,29.77,West,270,0.0,2.2,83,0.00,,---,0.21,VWS V13.01,2013-02-19 13:08:00,
2013-02-19 15:13:00,53.4,48.0,29.77,South,180,0.0,2.5,82,0.00,,---,0.21,VWS V13.01,2013-02-19 13:13:00,
2013-02-19 15:18:00,53.4,48.0,29.77,WNW,292,0.0,1.8,82,0.00,,---,0.21,VWS V13.01,2013-02-19 13:18:00,
2013-02-19 15:23:00,53.6,48.2,29.77,West,270,0.0,1.8,82,0.00,,---,0.21,VWS V13.01,2013-02-19 13:23:00,
2013-02-19 15:28:00,53.6,48.2,29.78,WSW,247,0.0,1.8,82,0.00,,---,0.21,VWS V13.01,2013-02-19 13:28:00,
2013-02-19 15:33:00,53.8,48.1,29.77,NNW,337,0.0,1.8,81,0.00,,---,0.21,VWS V13.01,2013-02-19 13:33:00,
2013-02-19 15:38:00,53.8,48.1,29.77,NNW,337,0.0,1.8,81,0.00,,---,0.21,VWS V13.01,2013-02-19 13:38:00,
2013-02-19 15:43:00,53.8,48.1,29.77,NNW,337,0.0,1.8,81,0.00,,---,0.21,VWS V13.01,2013-02-19 13:43:00,
2013-02-19 15:48:00,54.0,48.0,29.77,SSW,202,0.0,1.8,80,0.00,,---,0.21,VWS V13.01,2013-02-19 13:48:00,
2013-02-19 15:53:00,54.1,48.4,29.76,SW,225,0.0,2.2,81,0.00,,---,0.21,VWS V13.01,2013-02-19 13:53:00,
2013-02-19 15:58:00,54.3,48.3,29.77,East,90,0.0,1.3,80,0.00,,---,0.21,VWS V13.01,2013-02-19 13:58:00,
2013-02-19 16:03:00,54.5,48.1,29.77,SSW,202,5.1,5.1,79,0.00,,---,0.21,VWS V13.01,2013-02-19 14:03:00,
2013-02-19 16:08:00,54.7,48.3,29.76,SSE,157,0.0,2.0,79,0.00,,---,0.21,VWS V13.01,2013-02-19 14:08:00,
2013-02-19 16:13:00,55.0,48.6,29.76,SSE,157,0.0,2.7,79,0.00,,---,0.21,VWS V13.01,2013-02-19 14:13:00,
2013-02-19 16:18:00,55.2,48.5,29.76,South,180,3.1,4.0,78,0.00,,---,0.21,VWS V13.01,2013-02-19 14:18:00,
2013-02-19 16:23:00,55.4,48.3,29.76,South,180,2.5,4.3,77,0.00,,---,0.21,VWS V13.01,2013-02-19 14:23:00,
2013-02-19 16:28:00,55.6,48.5,29.76,South,180,0.0,2.0,77,0.00,,---,0.21,VWS V13.01,2013-02-19 14:28:00,
2013-02-19 16:33:00,55.6,48.5,29.76,WSW,247,0.0,4.3,77,0.00,,---,0.21,VWS V13.01,2013-02-19 14:33:00,
2013-02-19 16:38:00,55.8,48.4,29.76,South,180,0.0,2.5,76,0.00,,---,0.21,VWS V13.01,2013-02-19 14:38:00,
2013-02-19 16:43:00,55.8,48.4,29.76,SSW,202,1.6,5.1,76,0.00,,---,0.21,VWS V13.01,2013-02-19 14:43:00,
2013-02-19 16:48:00,55.9,48.1,29.76,SW,225,6.3,6.3,75,0.00,,---,0.21,VWS V13.01,2013-02-19 14:48:00,
2013-02-19 16:53:00,55.9,48.1,29.76,SW,225,6.0,6.7,75,0.00,,---,0.21,VWS V13.01,2013-02-19 14:53:00,
2013-02-19 16:58:00,55.9,48.1,29.76,SSW,202,0.0,2.9,75,0.00,,---,0.21,VWS V13.01,2013-02-19 14:58:00,
2013-02-19 17:03:00,55.8,48.0,29.76,SSW,202,1.3,3.8,75,0.00,,---,0.21,VWS V13.01,2013-02-19 15:03:00,
2013-02-19 17:08:00,55.6,47.5,29.75,South,180,3.6,4.0,74,0.00,,---,0.21,VWS V13.01,2013-02-19 15:08:00,
2013-02-19 17:13:00,55.6,47.5,29.75,SSW,202,4.5,6.9,74,0.00,,---,0.21,VWS V13.01,2013-02-19 15:13:00,
2013-02-19 17:18:00,55.4,47.3,29.75,SSW,202,3.8,3.8,74,0.00,,---,0.21,VWS V13.01,2013-02-19 15:18:00,
2013-02-19 17:23:00,55.4,47.3,29.75,SW,225,8.7,8.7,74,0.00,,---,0.21,VWS V13.01,2013-02-19 15:23:00,
2013-02-19 17:28:00,55.2,47.1,29.75,SSE,157,1.6,4.7,74,0.00,,---,0.21,VWS V13.01,2013-02-19 15:28:00,
2013-02-19 17:33:00,55.2,46.7,29.75,South,180,2.9,6.3,73,0.00,,---,0.21,VWS V13.01,2013-02-19 15:33:00,
2013-02-19 17:38:00,55.2,46.7,29.75,SW,225,2.0,3.1,73,0.00,,---,0.21,VWS V13.01,2013-02-19 15:38:00,
2013-02-19 17:43:00,55.2,46.7,29.75,SSW,202,1.6,6.3,73,0.00,,---,0.21,VWS V13.01,2013-02-19 15:43:00,
2013-02-19 17:48:00,55.0,46.5,29.75,SSW,202,0.0,2.0,73,0.00,,---,0.21,VWS V13.01,2013-02-19 15:48:00,
2013-02-19 17:53:00,55.0,46.5,29.75,SSW,202,3.4,3.6,73,0.00,,---,0.21,VWS V13.01,2013-02-19 15:53:00,
2013-02-19 17:59:00,55.0,46.5,29.75,SW,225,0.0,1.8,73,0.00,,---,0.21,VWS V13.01,2013-02-19 15:59:00,
2013-02-19 18:04:00,54.9,46.4,29.75,West,270,0.0,1.8,73,0.00,,---,0.21,VWS V13.01,2013-02-19 16:04:00,
2013-02-19 18:09:00,54.7,46.2,29.75,WSW,247,0.0,2.2,73,0.00,,---,0.21,VWS V13.01,2013-02-19 16:09:00,
2013-02-19 18:14:00,54.5,46.0,29.75,WSW,247,0.0,4.7,73,0.00,,---,0.21,VWS V13.01,2013-02-19 16:14:00,
2013-02-19 18:19:00,54.3,45.8,29.75,WNW,292,0.0,5.1,73,0.00,,---,0.21,VWS V13.01,2013-02-19 16:19:00,
2013-02-19 18:24:00,54.1,45.7,29.75,WNW,292,0.0,2.5,73,0.00,,---,0.21,VWS V13.01,2013-02-19 16:24:00,
2013-02-19 18:29:00,54.0,45.5,29.76,SSW,202,2.0,2.0,73,0.00,,---,0.21,VWS V13.01,2013-02-19 16:29:00,
2013-02-19 18:34:00,53.8,45.4,29.75,WSW,247,0.0,2.0,73,0.00,,---,0.21,VWS V13.01,2013-02-19 16:34:00,
2013-02-19 18:39:00,53.6,45.5,29.75,South,180,0.0,2.0,74,0.00,,---,0.21,VWS V13.01,2013-02-19 16:39:00,
2013-02-19 18:44:00,53.4,45.3,29.75,SSW,202,0.0,2.0,74,0.00,,---,0.21,VWS V13.01,2013-02-19 16:44:00,
2013-02-19 18:49:00,53.2,45.1,29.75,East,90,0.0,2.0,74,0.00,,---,0.21,VWS V13.01,2013-02-19 16:49:00,
2013-02-19 18:54:00,53.2,45.1,29.75,SE,135,0.0,2.0,74,0.00,,---,0.21,VWS V13.01,2013-02-19 16:54:00,
2013-02-19 18:59:00,52.9,45.2,29.76,ESE,112,0.0,2.0,75,0.00,,---,0.21,VWS V13.01,2013-02-19 16:59:00,
2013-02-19 19:04:00,52.7,45.0,29.75,SE,135,0.0,2.0,75,0.00,,---,0.21,VWS V13.01,2013-02-19 17:04:00,
2013-02-19 19:09:00,52.5,44.8,29.75,NE,45,0.0,2.0,75,0.00,,---,0.21,VWS V13.01,2013-02-19 17:09:00,
2013-02-19 19:14:00,52.3,44.6,29.75,NNE,22,0.0,2.0,75,0.00,,---,0.21,VWS V13.01,2013-02-19 17:14:00,
2013-02-19 19:19:00,52.2,44.5,29.76,NNW,337,0.0,2.0,75,0.00,,---,0.21,VWS V13.01,2013-02-19 17:19:00,
2013-02-19 19:24:00,52.0,44.7,29.75,West,270,1.6,1.6,76,0.00,,---,0.21,VWS V13.01,2013-02-19 17:24:00,
2013-02-19 19:29:00,52.0,44.7,29.75,East,90,0.0,1.6,76,0.00,,---,0.21,VWS V13.01,2013-02-19 17:29:00,
2013-02-19 19:34:00,51.8,44.5,29.76,SSE,157,0.0,1.3,76,0.00,,---,0.21,VWS V13.01,2013-02-19 17:34:00,
2013-02-19 19:39:00,51.6,44.3,29.76,South,180,0.0,2.2,76,0.00,,---,0.21,VWS V13.01,2013-02-19 17:39:00,
2013-02-19 19:44:00,51.6,44.6,29.76,West,270,0.0,1.6,77,0.00,,---,0.21,VWS V13.01,2013-02-19 17:44:00,
2013-02-19 19:49:00,51.6,44.6,29.76,WNW,292,0.0,1.6,77,0.00,,---,0.21,VWS V13.01,2013-02-19 17:49:00,
2013-02-19 19:54:00,51.4,44.4,29.76,NW,315,0.0,1.6,77,0.00,,---,0.21,VWS V13.01,2013-02-19 17:54:00,
2013-02-19 19:59:00,51.4,44.4,29.76,SSW,202,0.0,1.3,77,0.00,,---,0.21,VWS V13.01,2013-02-19 17:59:00,
2013-02-19 20:04:00,51.3,44.3,29.77,WSW,247,0.0,1.3,77,0.00,,---,0.21,VWS V13.01,2013-02-19 18:04:00,
2013-02-19 20:09:00,51.1,44.2,29.77,SW,225,0.0,1.3,77,0.00,,---,0.21,VWS V13.01,2013-02-19 18:09:00,
2013-02-19 20:15:00,51.1,44.2,29.77,SW,225,0.0,1.3,77,0.00,,---,0.21,VWS V13.01,2013-02-19 18:15:00,
2013-02-19 20:20:00,50.9,44.0,29.77,SW,225,0.0,1.3,77,0.00,,---,0.21,VWS V13.01,2013-02-19 18:20:00,
2013-02-19 20:25:00,50.9,44.0,29.77,NW,315,0.0,1.1,77,0.00,,---,0.21,VWS V13.01,2013-02-19 18:25:00,
2013-02-19 20:30:00,50.7,44.1,29.76,West,270,1.3,2.5,78,0.00,,---,0.21,VWS V13.01,2013-02-19 18:30:00,
2013-02-19 20:35:00,50.7,44.1,29.77,WNW,292,0.0,2.2,78,0.00,,---,0.21,VWS V13.01,2013-02-19 18:35:00,
2013-02-19 20:40:00,50.7,43.8,29.77,NW,315,0.0,2.2,77,0.00,,---,0.21,VWS V13.01,2013-02-19 18:40:00,
2013-02-19 20:45:00,50.7,44.1,29.77,NW,315,0.0,2.5,78,0.00,,---,0.21,VWS V13.01,2013-02-19 18:45:00,
2013-02-19 20:50:00,50.7,44.1,29.77,NNW,337,0.0,4.0,78,0.00,,---,0.21,VWS V13.01,2013-02-19 18:50:00,
2013-02-19 20:55:00,50.7,44.1,29.77,WNW,292,0.0,2.5,78,0.00,,---,0.21,VWS V13.01,2013-02-19 18:55:00,
2013-02-19 21:00:00,50.9,44.0,29.76,SSW,202,2.9,2.9,77,0.00,,---,0.21,VWS V13.01,2013-02-19 19:00:00,
2013-02-19 21:05:00,50.9,44.0,29.77,SSW,202,0.0,1.8,77,0.00,,---,0.21,VWS V13.01,2013-02-19 19:05:00,
2013-02-19 21:10:00,51.1,44.2,29.77,South,180,0.0,2.2,77,0.00,,---,0.21,VWS V13.01,2013-02-19 19:10:00,
2013-02-19 21:15:00,51.1,44.2,29.77,SSW,202,2.0,2.0,77,0.00,,---,0.21,VWS V13.01,2013-02-19 19:15:00,
2013-02-19 21:20:00,51.1,44.2,29.77,WNW,292,0.0,2.2,77,0.00,,---,0.21,VWS V13.01,2013-02-19 19:20:00,
2013-02-19 21:25:00,51.1,44.2,29.77,SSW,202,0.0,2.2,77,0.00,,---,0.21,VWS V13.01,2013-02-19 19:25:00,
2013-02-19 21:30:00,51.1,43.8,29.77,South,180,0.0,2.2,76,0.00,,---,0.21,VWS V13.01,2013-02-19 19:30:00,
2013-02-19 21:35:00,51.1,43.8,29.77,SSE,157,0.0,2.2,76,0.00,,---,0.21,VWS V13.01,2013-02-19 19:35:00,
2013-02-19 21:40:00,51.1,43.8,29.77,SE,135,0.0,2.2,76,0.00,,---,0.21,VWS V13.01,2013-02-19 19:40:00,
2013-02-19 21:45:00,51.1,44.2,29.78,ESE,112,0.0,2.2,77,0.00,,---,0.21,VWS V13.01,2013-02-19 19:45:00,
2013-02-19 21:50:00,51.1,44.2,29.78,SSE,157,0.0,2.2,77,0.00,,---,0.21,VWS V13.01,2013-02-19 19:50:00,
2013-02-19 21:55:00,50.9,44.0,29.78,South,180,0.0,2.2,77,0.00,,---,0.21,VWS V13.01,2013-02-19 19:55:00,
2013-02-19 22:00:00,50.9,44.0,29.78,South,180,0.0,1.6,77,0.00,,---,0.21,VWS V13.01,2013-02-19 20:00:00,
2013-02-19 22:05:00,50.7,43.8,29.78,SE,135,0.0,1.6,77,0.00,,---,0.21,VWS V13.01,2013-02-19 20:05:00,
2013-02-19 22:10:00,50.7,43.8,29.78,SSW,202,0.0,2.0,77,0.00,,---,0.21,VWS V13.01,2013-02-19 20:10:00,
2013-02-19 22:15:00,50.5,43.6,29.79,South,180,0.0,2.0,77,0.00,,---,0.21,VWS V13.01,2013-02-19 20:15:00,
2013-02-19 22:20:00,50.5,43.6,29.79,WNW,292,0.0,2.0,77,0.00,,---,0.21,VWS V13.01,2013-02-19 20:20:00,
2013-02-19 22:25:00,50.5,43.6,29.79,SSW,202,0.0,2.0,77,0.00,,---,0.21,VWS V13.01,2013-02-19 20:25:00,
2013-02-19 22:30:00,50.4,43.5,29.79,SSW,202,0.0,2.0,77,0.00,,---,0.21,VWS V13.01,2013-02-19 20:30:00,
2013-02-19 22:35:00,50.2,43.3,29.78,South,180,0.0,2.0,77,0.00,,---,0.21,VWS V13.01,2013-02-19 20:35:00,
2013-02-19 22:40:00,50.2,43.3,29.79,WSW,247,0.0,1.1,77,0.00,,---,0.21,VWS V13.01,2013-02-19 20:40:00,
2013-02-19 22:45:00,50.0,43.1,29.78,SSW,202,0.0,1.6,77,0.00,,---,0.21,VWS V13.01,2013-02-19 20:45:00,
2013-02-19 22:50:00,49.8,43.2,29.78,SW,225,3.8,3.8,78,0.00,,---,0.21,VWS V13.01,2013-02-19 20:50:00,
2013-02-19 22:55:00,49.8,43.2,29.79,SSW,202,0.0,2.0,78,0.00,,---,0.21,VWS V13.01,2013-02-19 20:55:00,
2013-02-19 23:00:00,49.6,43.0,29.79,WNW,292,0.0,2.0,78,0.00,,---,0.21,VWS V13.01,2013-02-19 21:00:00,
2013-02-19 23:05:00,49.6,43.0,29.79,NNW,337,0.0,1.6,78,0.00,,---,0.21,VWS V13.01,2013-02-19 21:05:00,
2013-02-19 23:10:00,49.6,43.0,29.79,SSE,157,0.0,1.6,78,0.00,,---,0.21,VWS V13.01,2013-02-19 21:10:00,
2013-02-19 23:15:00,49.6,43.0,29.79,SSW,202,0.0,1.6,78,0.00,,---,0.21,VWS V13.01,2013-02-19 21:15:00,
2013-02-19 23:20:00,49.3,42.7,29.78,SSE,157,0.0,1.6,78,0.00,,---,0.21,VWS V13.01,2013-02-19 21:20:00,
2013-02-19 23:26:00,49.3,42.7,29.78,SE,135,0.0,1.6,78,0.00,,---,0.21,VWS V13.01,2013-02-19 21:26:00,
2013-02-19 23:31:00,49.3,42.7,29.79,South,180,0.0,1.8,78,0.00,,---,0.21,VWS V13.01,2013-02-19 21:31:00,
2013-02-19 23:36:00,49.1,42.5,29.79,SSW,202,0.0,0.7,78,0.00,,---,0.21,VWS V13.01,2013-02-19 21:36:00,
2013-02-19 23:41:00,48.9,42.3,29.79,SW,225,0.0,0.7,78,0.00,,---,0.21,VWS V13.01,2013-02-19 21:41:00,
2013-02-19 23:46:00,48.7,42.5,29.79,SSW,202,0.0,0.7,79,0.00,,---,0.21,VWS V13.01,2013-02-19 21:46:00,
2013-02-19 23:51:00,48.7,42.5,29.78,WSW,247,0.0,0.7,79,0.00,,---,0.21,VWS V13.01,2013-02-19 21:51:00,
2013-02-19 23:56:00,48.6,42.4,29.79,South,180,0.0,1.3,79,0.00,,---,0.21,VWS V13.01,2013-02-19 21:56:00,